createdAt,value
2022-09-13T00:01:30.234Z,9.19
2022-09-13T00:03:59.428Z,9.32
2022-09-13T00:06:28.855Z,9.49
2022-09-13T00:08:58.944Z,9.86
2022-09-13T00:11:30.484Z,10.24
2022-09-13T00:14:00.231Z,10.34
2022-09-13T00:16:30.741Z,10.35
2022-09-13T00:19:03.001Z,10.14
2022-09-13T00:21:31.757Z,9.95
2022-09-13T00:24:01.696Z,9.73
2022-09-13T00:26:30.638Z,9.67
2022-09-13T00:29:00.151Z,9.38
2022-09-13T00:31:30.096Z,9.40
2022-09-13T00:34:01.917Z,9.34
2022-09-13T00:36:30.976Z,9.36
2022-09-13T00:39:01.376Z,9.35
2022-09-13T00:41:30.778Z,9.38
2022-09-13T00:44:02.666Z,9.33
2022-09-13T00:46:40.454Z,9.28
2022-09-13T00:49:13.850Z,9.36
2022-09-13T00:51:50.241Z,9.64
2022-09-13T00:54:22.002Z,10.55
2022-09-13T00:56:58.569Z,11.76
2022-09-13T00:59:40.792Z,12.99
2022-09-13T01:02:11.239Z,13.47
2022-09-13T01:04:41.299Z,12.41
2022-09-13T01:07:14.609Z,11.32
2022-09-13T01:09:46.707Z,10.57
2022-09-13T01:12:24.293Z,10.19
2022-09-13T01:14:56.135Z,11.04
2022-09-13T01:17:25.454Z,12.74
2022-09-13T01:19:54.565Z,14.15
2022-09-13T01:22:50.337Z,14.35
2022-09-13T01:25:40.744Z,15.70
2022-09-13T01:28:42.300Z,16.55
2022-09-13T01:31:28.601Z,17.18
2022-09-13T01:34:24.512Z,17.54
2022-09-13T01:37:31.900Z,18.08
2022-09-13T01:40:17.883Z,18.82
2022-09-13T01:43:09.980Z,19.00
2022-09-13T01:45:53.952Z,18.38
2022-09-13T01:48:33.018Z,18.55
2022-09-13T01:51:18.874Z,17.67
2022-09-13T01:54:06.099Z,17.08
2022-09-13T01:57:00.281Z,16.52
2022-09-13T01:59:38.728Z,15.63
2022-09-13T02:02:55.809Z,14.61
2022-09-13T02:06:15.775Z,13.26
2022-09-13T02:08:50.331Z,12.20
2022-09-13T02:11:22.969Z,11.61
2022-09-13T02:14:16.869Z,11.29
2022-09-13T02:16:51.907Z,10.98
2022-09-13T02:19:43.190Z,10.77
2022-09-13T02:22:16.557Z,11.89
2022-09-13T02:24:49.192Z,14.34
2022-09-13T02:27:29.949Z,16.30
2022-09-13T02:30:07.629Z,17.44
2022-09-13T02:32:44.996Z,18.62
2022-09-13T02:35:26.218Z,19.54
2022-09-13T02:38:12.100Z,19.72
2022-09-13T02:40:47.192Z,19.95
2022-09-13T02:43:23.110Z,20.11
2022-09-13T02:46:04.626Z,20.02
2022-09-13T02:48:48.890Z,19.33
2022-09-13T02:51:33.951Z,19.33
2022-09-13T02:54:35.212Z,18.68
2022-09-13T02:57:16.080Z,17.24
2022-09-13T02:59:47.730Z,15.62
2022-09-13T03:02:26.382Z,14.55
2022-09-13T03:04:55.981Z,14.81
2022-09-13T03:07:24.780Z,15.27
2022-09-13T03:10:08.280Z,14.90
2022-09-13T03:13:06.638Z,13.70
2022-09-13T03:15:54.982Z,12.51
2022-09-13T03:18:55.459Z,11.93
2022-09-13T03:21:30.902Z,11.85
2022-09-13T03:24:29.133Z,11.39
2022-09-13T03:27:04.221Z,11.03
2022-09-13T03:30:11.885Z,11.08
2022-09-13T03:33:04.088Z,11.85
2022-09-13T03:35:35.637Z,12.84
2022-09-13T03:38:20.056Z,14.74
2022-09-13T03:40:59.107Z,15.19
2022-09-13T03:43:46.511Z,14.87
2022-09-13T03:46:31.691Z,15.97
2022-09-13T03:49:09.518Z,17.64
2022-09-13T03:51:40.743Z,18.92
2022-09-13T03:54:30.487Z,19.38
2022-09-13T03:57:18.015Z,19.42
2022-09-13T03:59:49.581Z,20.37
2022-09-13T04:02:20.511Z,20.90
2022-09-13T04:04:49.914Z,20.94
2022-09-13T04:07:25.334Z,20.87
2022-09-13T04:09:54.091Z,21.37
2022-09-13T04:12:22.948Z,21.96
2022-09-13T04:14:53.117Z,22.61
2022-09-13T04:17:21.941Z,23.20
2022-09-13T04:19:50.860Z,23.11
2022-09-13T04:22:19.996Z,23.01
2022-09-13T04:24:48.981Z,23.22
2022-09-13T04:27:18.212Z,23.57
2022-09-13T04:29:46.953Z,24.07
2022-09-13T04:32:15.664Z,24.39
2022-09-13T04:34:45.230Z,24.07
2022-09-13T04:37:14.271Z,24.16
2022-09-13T04:39:43.265Z,24.19
2022-09-13T04:42:12.127Z,24.44
2022-09-13T04:44:41.319Z,23.81
2022-09-13T04:47:10.131Z,23.37
2022-09-13T04:49:39.071Z,23.89
2022-09-13T04:52:07.788Z,22.62
2022-09-13T04:54:36.855Z,20.98
2022-09-13T04:57:05.630Z,21.47
2022-09-13T04:59:34.555Z,21.73
2022-09-13T05:02:04.109Z,19.80
2022-09-13T05:04:33.072Z,17.87
2022-09-13T05:07:01.865Z,17.14
2022-09-13T05:09:31.294Z,17.92
2022-09-13T05:12:00.688Z,18.70
2022-09-13T05:14:29.679Z,19.17
2022-09-13T05:16:58.414Z,18.44
2022-09-13T05:19:27.187Z,17.35
2022-09-13T05:21:55.927Z,16.26
2022-09-13T05:24:25.016Z,16.92
2022-09-13T05:26:53.838Z,17.00
2022-09-13T05:29:22.608Z,16.94
2022-09-13T05:31:51.413Z,17.41
2022-09-13T05:34:20.463Z,17.35
2022-09-13T05:36:54.153Z,17.98
2022-09-13T05:39:34.014Z,19.55
2022-09-13T05:42:08.503Z,19.72
2022-09-13T05:44:37.366Z,19.07
2022-09-13T05:47:06.523Z,19.33
2022-09-13T05:49:39.027Z,18.07
2022-09-13T05:52:18.875Z,16.92
2022-09-13T05:54:47.698Z,17.22
2022-09-13T05:57:16.620Z,16.71
2022-09-13T05:59:45.713Z,16.30
2022-09-13T06:02:15.755Z,15.97
2022-09-13T06:04:44.658Z,15.77
2022-09-13T06:07:13.652Z,15.78
2022-09-13T06:09:42.409Z,16.77
2022-09-13T06:12:11.086Z,18.53
2022-09-13T06:14:39.846Z,18.32
2022-09-13T06:17:09.008Z,18.53
2022-09-13T06:19:37.753Z,18.34
2022-09-13T06:22:10.127Z,18.81
2022-09-13T06:24:39.452Z,18.21
2022-09-13T06:27:08.380Z,16.85
2022-09-13T06:29:37.812Z,15.71
2022-09-13T06:32:06.893Z,14.94
2022-09-13T06:34:35.615Z,14.96
2022-09-13T06:37:04.762Z,15.60
2022-09-13T06:39:34.866Z,16.70
2022-09-13T06:42:03.883Z,17.17
2022-09-13T06:44:41.662Z,16.15
2022-09-13T06:47:10.548Z,14.88
2022-09-13T06:49:40.231Z,14.46
2022-09-13T06:52:09.053Z,14.31
2022-09-13T06:54:37.852Z,14.29
2022-09-13T06:57:06.779Z,14.43
2022-09-13T06:59:35.668Z,15.47
2022-09-13T07:02:05.172Z,16.81
2022-09-13T07:04:34.100Z,19.02
2022-09-13T07:07:03.067Z,21.05
2022-09-13T07:09:31.911Z,22.00
2022-09-13T07:12:00.884Z,20.54
2022-09-13T07:14:30.420Z,18.39
2022-09-13T07:16:59.990Z,17.17
2022-09-13T07:19:30.134Z,16.14
2022-09-13T07:21:59.313Z,15.49
2022-09-13T07:24:28.240Z,14.72
2022-09-13T07:26:57.115Z,14.18
2022-09-13T07:29:25.989Z,14.02
2022-09-13T07:31:55.810Z,13.68
2022-09-13T07:34:26.484Z,13.14
2022-09-13T07:36:56.321Z,12.76
2022-09-13T07:39:25.125Z,12.57
2022-09-13T07:41:54.334Z,12.36
2022-09-13T07:44:26.018Z,12.17
2022-09-13T07:46:54.707Z,12.09
2022-09-13T07:49:23.563Z,12.01
2022-09-13T07:51:52.595Z,12.16
2022-09-13T07:54:22.096Z,12.81
2022-09-13T07:56:52.299Z,13.54
2022-09-13T07:59:21.399Z,14.40
2022-09-13T08:01:52.780Z,14.43
2022-09-13T08:04:26.330Z,13.81
2022-09-13T08:06:55.200Z,13.19
2022-09-13T08:09:24.654Z,12.76
2022-09-13T08:11:53.862Z,12.37
2022-09-13T08:14:24.120Z,12.18
2022-09-13T08:16:57.317Z,12.12
2022-09-13T08:19:26.288Z,13.49
2022-09-13T08:21:55.839Z,13.79
2022-09-13T08:24:24.805Z,13.20
2022-09-13T08:26:55.659Z,12.65
2022-09-13T08:29:26.033Z,12.45
2022-09-13T08:31:54.835Z,12.39
2022-09-13T08:34:23.526Z,12.21
2022-09-13T08:36:52.267Z,12.20
2022-09-13T08:39:21.675Z,12.35
2022-09-13T08:42:12.288Z,12.24
2022-09-13T08:44:55.155Z,11.90
2022-09-13T08:47:49.018Z,11.78
2022-09-13T08:50:24.358Z,11.63
2022-09-13T08:52:58.677Z,11.50
2022-09-13T08:55:48.366Z,11.52
2022-09-13T08:58:31.650Z,11.65
2022-09-13T09:01:32.628Z,11.70
2022-09-13T09:04:36.760Z,11.75
2022-09-13T09:07:17.775Z,11.56
2022-09-13T09:10:02.650Z,11.36
2022-09-13T09:12:48.450Z,11.30
2022-09-13T09:15:49.473Z,11.09
2022-09-13T09:18:27.275Z,10.75
2022-09-13T09:20:59.306Z,10.75
2022-09-13T09:23:43.039Z,10.75
2022-09-13T09:26:31.279Z,10.66
2022-09-13T09:29:02.235Z,10.72
2022-09-13T09:31:46.627Z,10.59
2022-09-13T09:34:43.217Z,10.45
2022-09-13T09:37:28.110Z,10.47
2022-09-13T09:40:07.493Z,10.39
2022-09-13T09:42:44.276Z,10.36
2022-09-13T09:45:35.521Z,10.42
2022-09-13T09:48:17.633Z,10.44
2022-09-13T09:50:55.323Z,10.33
2022-09-13T09:53:36.997Z,10.19
2022-09-13T09:56:29.084Z,10.17
2022-09-13T09:58:57.874Z,10.09
2022-09-13T10:01:33.924Z,10.02
2022-09-13T10:04:10.824Z,9.94
2022-09-13T10:06:42.524Z,9.84
2022-09-13T10:09:13.966Z,9.76
2022-09-13T10:11:53.897Z,9.66
2022-09-13T10:14:45.514Z,9.65
2022-09-13T10:17:17.755Z,9.65
2022-09-13T10:20:14.336Z,9.69
2022-09-13T10:22:46.145Z,9.66
2022-09-13T10:25:14.888Z,9.60
2022-09-13T10:27:48.712Z,9.50
2022-09-13T10:30:33.152Z,9.52
2022-09-13T10:33:08.843Z,9.46
2022-09-13T10:36:14.126Z,9.40
2022-09-13T10:38:54.322Z,9.39
2022-09-13T10:41:27.016Z,9.42
2022-09-13T10:44:09.523Z,9.37
2022-09-13T10:46:40.952Z,9.40
2022-09-13T10:49:36.482Z,9.41
2022-09-13T10:52:35.569Z,9.41
2022-09-13T10:55:21.078Z,9.38
2022-09-13T10:57:56.123Z,9.35
2022-09-13T11:00:40.548Z,9.40
2022-09-13T11:03:30.299Z,9.37
2022-09-13T11:06:02.076Z,9.27
2022-09-13T11:08:42.672Z,9.15
2022-09-13T11:11:24.869Z,8.94
2022-09-13T11:14:25.911Z,8.77
2022-09-13T11:17:00.569Z,8.56
2022-09-13T11:19:35.227Z,8.39
2022-09-13T11:22:25.586Z,8.22
2022-09-13T11:25:15.526Z,8.12
2022-09-13T11:28:02.507Z,8.08
2022-09-13T11:31:04.405Z,8.09
2022-09-13T11:34:08.676Z,8.12
2022-09-13T11:37:01.260Z,8.11
2022-09-13T11:39:44.651Z,8.08
2022-09-13T11:42:32.730Z,8.09
2022-09-13T11:45:26.813Z,8.12
2022-09-13T11:48:01.753Z,8.17
2022-09-13T11:50:38.675Z,8.19
2022-09-13T11:53:31.783Z,8.19
2022-09-13T11:56:14.347Z,8.21
2022-09-13T11:59:15.518Z,8.26
2022-09-13T12:01:51.246Z,8.28
2022-09-13T12:04:28.516Z,8.29
2022-09-13T12:07:05.329Z,8.33
2022-09-13T12:09:40.963Z,8.38
2022-09-13T12:12:13.714Z,8.39
2022-09-13T12:15:00.924Z,8.37
2022-09-13T12:17:46.475Z,8.32
2022-09-13T12:20:31.671Z,8.30
2022-09-13T12:23:03.195Z,8.26
2022-09-13T12:25:51.208Z,8.22
2022-09-13T12:28:44.632Z,8.10
2022-09-13T12:31:20.322Z,7.93
2022-09-13T12:33:50.077Z,7.79
2022-09-13T12:36:36.031Z,7.60
2022-09-13T12:39:32.593Z,7.38
2022-09-13T12:42:34.847Z,7.17
2022-09-13T12:45:25.402Z,6.98
2022-09-13T12:48:21.619Z,6.89
2022-09-13T12:51:00.444Z,6.77
2022-09-13T12:53:44.868Z,6.66
2022-09-13T12:56:57.187Z,6.53
2022-09-13T12:59:55.584Z,6.40
2022-09-13T13:03:03.707Z,6.26
2022-09-13T13:05:36.686Z,6.19
2022-09-13T13:08:21.908Z,6.16
2022-09-13T13:11:12.910Z,6.22
2022-09-13T13:13:53.965Z,6.30
2022-09-13T13:16:28.163Z,6.34
2022-09-13T13:19:01.862Z,6.40
2022-09-13T13:21:33.507Z,6.51
2022-09-13T13:24:17.465Z,6.50
2022-09-13T13:26:59.837Z,6.42
2022-09-13T13:29:34.404Z,6.19
2022-09-13T13:32:08.113Z,6.22
2022-09-13T13:34:50.683Z,6.11
2022-09-13T13:37:22.071Z,6.02
2022-09-13T13:40:13.772Z,5.95
2022-09-13T13:42:46.354Z,5.90
2022-09-13T13:45:22.624Z,5.82
2022-09-13T13:48:15.708Z,5.72
2022-09-13T13:51:22.623Z,5.65
2022-09-13T13:53:57.228Z,5.61
2022-09-13T13:56:47.881Z,5.48
2022-09-13T13:59:35.579Z,5.33
2022-09-13T14:02:07.240Z,5.25
2022-09-13T14:04:42.047Z,5.19
2022-09-13T14:07:59.489Z,5.15
2022-09-13T14:10:38.202Z,5.11
2022-09-13T14:13:37.824Z,5.08
2022-09-13T14:16:37.319Z,5.03
2022-09-13T14:19:40.189Z,4.97
2022-09-13T14:22:27.227Z,4.90
2022-09-13T14:25:14.574Z,4.86
2022-09-13T14:27:48.219Z,4.85
2022-09-13T14:30:24.494Z,4.80
2022-09-13T14:32:58.102Z,4.73
2022-09-13T14:35:37.856Z,4.67
2022-09-13T14:38:20.751Z,4.59
2022-09-13T14:40:58.664Z,4.57
2022-09-13T14:43:29.635Z,4.54
2022-09-13T14:46:13.732Z,4.53
2022-09-13T14:48:58.430Z,4.47
2022-09-13T14:51:51.079Z,4.44
2022-09-13T14:54:43.558Z,4.39
2022-09-13T14:57:26.914Z,4.29
2022-09-13T15:00:03.688Z,4.28
2022-09-13T15:02:39.746Z,4.27
2022-09-13T15:05:14.861Z,4.25
2022-09-13T15:07:44.323Z,4.24
2022-09-13T15:10:19.216Z,4.25
2022-09-13T15:13:05.824Z,4.25
2022-09-13T15:15:37.388Z,4.28
2022-09-13T15:18:21.601Z,4.25
2022-09-13T15:21:11.819Z,4.25
2022-09-13T15:23:43.807Z,4.23
2022-09-13T15:26:21.714Z,4.15
2022-09-13T15:28:57.415Z,4.15
2022-09-13T15:31:34.199Z,4.11
2022-09-13T15:34:14.390Z,4.09
2022-09-13T15:36:46.301Z,4.06
2022-09-13T15:39:22.462Z,4.03
2022-09-13T15:41:57.058Z,3.96
2022-09-13T15:44:26.463Z,3.95
2022-09-13T15:47:00.378Z,3.85
2022-09-13T15:49:30.197Z,3.82
2022-09-13T15:52:01.726Z,3.79
2022-09-13T15:54:41.952Z,3.77
2022-09-13T15:57:18.439Z,3.75
2022-09-13T15:59:47.298Z,3.71
2022-09-13T16:02:22.493Z,3.67
2022-09-13T16:04:51.478Z,3.62
2022-09-13T16:07:22.554Z,3.62
2022-09-13T16:09:52.104Z,3.59
2022-09-13T16:12:24.960Z,3.57
2022-09-13T16:14:55.003Z,3.52
2022-09-13T16:17:28.377Z,3.46
2022-09-13T16:19:58.226Z,3.50
2022-09-13T16:22:28.344Z,3.48
2022-09-13T16:24:57.495Z,3.44
2022-09-13T16:27:33.248Z,3.49
2022-09-13T16:30:06.814Z,3.49
2022-09-13T16:32:35.571Z,3.43
2022-09-13T16:35:04.491Z,3.38
2022-09-13T16:37:33.271Z,3.35
2022-09-13T16:40:02.333Z,3.31
2022-09-13T16:42:32.069Z,3.28
2022-09-13T16:45:00.778Z,3.23
2022-09-13T16:47:31.761Z,3.24
2022-09-13T16:50:01.133Z,3.14
2022-09-13T16:52:31.601Z,3.16
2022-09-13T16:55:00.875Z,3.09
2022-09-13T16:57:29.809Z,3.08
2022-09-13T16:59:59.403Z,3.08
2022-09-13T17:02:29.038Z,3.08
2022-09-13T17:04:59.309Z,3.05
2022-09-13T17:07:28.216Z,3.04
2022-09-13T17:09:57.388Z,3.07
2022-09-13T17:12:26.149Z,3.03
2022-09-13T17:14:55.626Z,2.97
2022-09-13T17:17:24.593Z,2.92
2022-09-13T17:19:53.417Z,2.95
2022-09-13T17:22:22.153Z,2.90
2022-09-13T17:24:50.940Z,2.85
2022-09-13T17:27:19.889Z,2.84
2022-09-13T17:29:48.578Z,2.81
2022-09-13T17:32:17.370Z,2.82
2022-09-13T17:34:46.143Z,2.79
2022-09-13T17:37:15.058Z,2.83
2022-09-13T17:39:43.851Z,2.80
2022-09-13T17:42:12.958Z,2.80
2022-09-13T17:44:41.716Z,2.81
2022-09-13T17:47:10.998Z,2.82
2022-09-13T17:49:40.121Z,2.77
2022-09-13T17:52:08.893Z,2.58
2022-09-13T17:54:37.677Z,2.71
2022-09-13T17:57:06.844Z,2.68
2022-09-13T17:59:35.608Z,2.67
2022-09-13T18:02:04.943Z,2.67
2022-09-13T18:04:33.953Z,2.67
2022-09-13T18:07:03.082Z,2.67
2022-09-13T18:09:31.960Z,2.66
2022-09-13T18:12:00.805Z,2.70
2022-09-13T18:14:29.535Z,2.68
2022-09-13T18:16:59.808Z,2.63
2022-09-13T18:19:45.309Z,2.64
2022-09-13T18:22:15.678Z,2.61
2022-09-13T18:24:44.455Z,2.57
2022-09-13T18:27:13.189Z,2.56
2022-09-13T18:29:42.646Z,2.49
2022-09-13T18:32:11.367Z,2.45
2022-09-13T18:34:43.087Z,2.43
2022-09-13T18:37:11.949Z,2.36
2022-09-13T18:39:40.796Z,2.28
2022-09-13T18:42:09.555Z,2.30
2022-09-13T18:44:38.435Z,2.19
2022-09-13T18:47:09.334Z,2.20
2022-09-13T18:49:38.068Z,2.17
2022-09-13T18:52:07.533Z,2.17
2022-09-13T18:54:36.293Z,2.16
2022-09-13T18:57:05.188Z,2.16
2022-09-13T18:59:34.334Z,2.14
2022-09-13T19:02:04.865Z,2.16
2022-09-13T19:04:37.604Z,2.14
2022-09-13T19:07:09.121Z,2.10
2022-09-13T19:09:38.270Z,2.13
2022-09-13T19:12:07.697Z,2.13
2022-09-13T19:14:36.414Z,2.08
2022-09-13T19:17:05.236Z,2.09
2022-09-13T19:19:36.118Z,2.03
2022-09-13T19:22:04.876Z,2.05
2022-09-13T19:24:34.393Z,2.05
2022-09-13T19:27:03.151Z,2.03
2022-09-13T19:29:31.898Z,1.96
2022-09-13T19:32:01.151Z,1.96
2022-09-13T19:34:29.900Z,1.92
2022-09-13T19:36:58.693Z,1.84
2022-09-13T19:39:30.490Z,1.83
2022-09-13T19:42:01.229Z,1.80
2022-09-13T19:44:31.410Z,1.79
2022-09-13T19:47:43.037Z,1.81
2022-09-13T19:49:50.993Z,1.77
2022-09-13T19:52:19.937Z,1.81
2022-09-13T19:54:48.626Z,1.81
2022-09-13T19:57:18.029Z,1.84
2022-09-13T19:59:46.805Z,1.86
2022-09-13T20:02:16.093Z,1.79
2022-09-13T20:04:48.404Z,1.81
2022-09-13T20:07:17.155Z,1.82
2022-09-13T20:09:47.643Z,1.80
2022-09-13T20:12:16.508Z,1.81
2022-09-13T20:14:45.264Z,1.83
2022-09-13T20:17:14.038Z,1.83
2022-09-13T20:19:49.080Z,1.76
2022-09-13T20:22:18.823Z,1.79
2022-09-13T20:24:47.650Z,1.76
2022-09-13T20:27:16.743Z,1.77
2022-09-13T20:29:45.660Z,1.72
2022-09-13T20:32:14.445Z,1.71
2022-09-13T20:34:43.178Z,1.73
2022-09-13T20:37:12.143Z,1.67
2022-09-13T20:39:40.905Z,1.67
2022-09-13T20:42:09.839Z,1.66
2022-09-13T20:44:41.512Z,1.65
2022-09-13T20:47:11.639Z,1.65
2022-09-13T20:49:40.515Z,1.63
2022-09-13T20:52:09.216Z,1.66
2022-09-13T20:54:38.733Z,1.65
2022-09-13T20:57:07.497Z,1.67
2022-09-13T20:59:36.680Z,1.66
2022-09-13T21:02:06.693Z,1.66
2022-09-13T21:04:36.552Z,1.63
2022-09-13T21:07:23.762Z,1.61
2022-09-13T21:09:53.267Z,1.56
2022-09-13T21:12:22.163Z,1.51
2022-09-13T21:14:51.550Z,1.44
2022-09-13T21:17:20.967Z,1.38
2022-09-13T21:19:49.891Z,1.39
2022-09-13T21:22:18.773Z,1.38
2022-09-13T21:24:47.693Z,1.32
2022-09-13T21:27:16.848Z,1.26
2022-09-13T21:29:45.765Z,1.29
2022-09-13T21:32:15.130Z,1.22
2022-09-13T21:34:45.060Z,1.25
2022-09-13T21:37:13.978Z,1.22
2022-09-13T21:39:42.887Z,1.23
2022-09-13T21:42:11.856Z,1.18
2022-09-13T21:44:41.441Z,1.22
2022-09-13T21:47:11.058Z,1.21
2022-09-13T21:49:39.839Z,1.18
2022-09-13T21:52:09.423Z,1.21
2022-09-13T21:54:38.342Z,1.17
2022-09-13T21:57:07.250Z,1.06
2022-09-13T21:59:36.322Z,1.12
2022-09-13T22:02:06.352Z,1.18
2022-09-13T22:04:36.473Z,1.18
2022-09-13T22:07:05.343Z,1.14
2022-09-13T22:09:34.244Z,1.18
2022-09-13T22:12:03.589Z,1.24
2022-09-13T22:14:32.882Z,1.25
2022-09-13T22:17:02.409Z,1.27
2022-09-13T22:19:32.312Z,1.25
2022-09-13T22:22:01.410Z,1.29
2022-09-13T22:24:37.042Z,1.35
2022-09-13T22:27:07.742Z,1.29
2022-09-13T22:29:36.862Z,1.31
2022-09-13T22:32:06.177Z,1.30
2022-09-13T22:34:35.646Z,1.26
2022-09-13T22:37:04.727Z,1.30
2022-09-13T22:39:33.541Z,1.28
2022-09-13T22:42:03.428Z,1.29
2022-09-13T22:44:33.090Z,1.22
2022-09-13T22:47:01.886Z,1.12
2022-09-13T22:49:30.729Z,1.10
2022-09-13T22:51:59.563Z,1.02
2022-09-13T22:54:29.221Z,1.03
2022-09-13T22:56:58.480Z,1.04
2022-09-13T22:59:29.365Z,1.03
2022-09-13T23:01:59.060Z,1.00
2022-09-13T23:04:29.144Z,0.99
2022-09-13T23:06:58.012Z,0.95
2022-09-13T23:09:27.120Z,0.93
2022-09-13T23:11:56.001Z,0.95
2022-09-13T23:14:24.940Z,0.98
2022-09-13T23:16:55.548Z,1.00
2022-09-13T23:19:28.685Z,0.96
2022-09-13T23:21:57.453Z,0.99
2022-09-13T23:24:26.323Z,0.99
2022-09-13T23:26:57.292Z,0.96
2022-09-13T23:29:26.137Z,0.99
2022-09-13T23:31:54.969Z,1.00
2022-09-13T23:34:24.615Z,1.06
2022-09-13T23:36:53.498Z,1.16
2022-09-13T23:39:22.474Z,1.31
2022-09-13T23:41:52.226Z,1.48
2022-09-13T23:44:21.124Z,1.78
2022-09-13T23:46:53.066Z,2.16
2022-09-13T23:49:22.319Z,2.39
2022-09-13T23:51:51.520Z,2.46
2022-09-13T23:54:21.082Z,2.47
2022-09-13T23:56:49.940Z,2.55
2022-09-13T23:59:18.775Z,2.73
